sensor_id;sensor_type;location;lat;lon;timestamp;temperature;humidity
67529;DHT22;54366;51.980;5.856;2022-10-26T00:00:48;12.50;82.30
67529;DHT22;54366;51.980;5.856;2022-10-26T00:03:15;12.50;82.40
67529;DHT22;54366;51.980;5.856;2022-10-26T00:05:41;12.50;82.40
67529;DHT22;54366;51.980;5.856;2022-10-26T00:08:08;12.50;82.50
67529;DHT22;54366;51.980;5.856;2022-10-26T00:10:36;12.60;82.50
67529;DHT22;54366;51.980;5.856;2022-10-26T00:13:03;12.50;82.30
67529;DHT22;54366;51.980;5.856;2022-10-26T00:15:30;12.50;82.20
67529;DHT22;54366;51.980;5.856;2022-10-26T00:17:57;12.60;82.10
67529;DHT22;54366;51.980;5.856;2022-10-26T00:20:23;12.60;82.20
67529;DHT22;54366;51.980;5.856;2022-10-26T00:22:49;12.60;82.40
67529;DHT22;54366;51.980;5.856;2022-10-26T00:25:16;12.60;82.50
67529;DHT22;54366;51.980;5.856;2022-10-26T00:27:42;12.60;82.40
67529;DHT22;54366;51.980;5.856;2022-10-26T00:30:08;12.60;82.30
67529;DHT22;54366;51.980;5.856;2022-10-26T00:32:34;12.60;82.40
67529;DHT22;54366;51.980;5.856;2022-10-26T00:35:01;12.70;82.60
67529;DHT22;54366;51.980;5.856;2022-10-26T00:37:27;12.60;82.50
67529;DHT22;54366;51.980;5.856;2022-10-26T00:39:53;12.60;82.70
67529;DHT22;54366;51.980;5.856;2022-10-26T00:42:21;12.60;82.60
67529;DHT22;54366;51.980;5.856;2022-10-26T00:49:50;12.70;82.60
67529;DHT22;54366;51.980;5.856;2022-10-26T00:52:19;12.70;82.70
67529;DHT22;54366;51.980;5.856;2022-10-26T00:54:46;12.70;82.60
67529;DHT22;54366;51.980;5.856;2022-10-26T00:57:14;12.70;82.60
67529;DHT22;54366;51.980;5.856;2022-10-26T00:59:42;12.70;82.50
67529;DHT22;54366;51.980;5.856;2022-10-26T01:02:09;12.70;82.50
67529;DHT22;54366;51.980;5.856;2022-10-26T01:04:35;12.70;83.00
67529;DHT22;54366;51.980;5.856;2022-10-26T01:07:03;12.80;82.30
67529;DHT22;54366;51.980;5.856;2022-10-26T01:09:30;12.80;82.60
67529;DHT22;54366;51.980;5.856;2022-10-26T01:11:57;12.80;82.50
67529;DHT22;54366;51.980;5.856;2022-10-26T01:14:26;12.80;82.40
67529;DHT22;54366;51.980;5.856;2022-10-26T01:17:06;12.80;82.50
67529;DHT22;54366;51.980;5.856;2022-10-26T01:19:48;12.80;82.40
67529;DHT22;54366;51.980;5.856;2022-10-26T01:22:21;12.80;82.40
67529;DHT22;54366;51.980;5.856;2022-10-26T01:27:39;12.80;82.40
67529;DHT22;54366;51.980;5.856;2022-10-26T01:38:21;12.90;82.30
67529;DHT22;54366;51.980;5.856;2022-10-26T01:43:47;12.90;82.40
67529;DHT22;54366;51.980;5.856;2022-10-26T01:46:16;12.90;82.30
67529;DHT22;54366;51.980;5.856;2022-10-26T01:48:44;12.90;82.30
67529;DHT22;54366;51.980;5.856;2022-10-26T01:51:11;12.80;82.20
67529;DHT22;54366;51.980;5.856;2022-10-26T01:53:44;12.90;82.40
67529;DHT22;54366;51.980;5.856;2022-10-26T01:56:18;12.90;82.40
67529;DHT22;54366;51.980;5.856;2022-10-26T01:58:57;12.80;82.30
67529;DHT22;54366;51.980;5.856;2022-10-26T02:07:09;12.90;82.60
67529;DHT22;54366;51.980;5.856;2022-10-26T02:21:06;12.80;82.60
67529;DHT22;54366;51.980;5.856;2022-10-26T02:23:36;12.90;82.50
67529;DHT22;54366;51.980;5.856;2022-10-26T02:26:06;12.80;82.50
67529;DHT22;54366;51.980;5.856;2022-10-26T02:28:36;12.80;82.50
67529;DHT22;54366;51.980;5.856;2022-10-26T02:31:04;12.90;83.10
67529;DHT22;54366;51.980;5.856;2022-10-26T02:33:36;12.90;82.50
67529;DHT22;54366;51.980;5.856;2022-10-26T02:36:06;12.90;82.60
67529;DHT22;54366;51.980;5.856;2022-10-26T02:38:34;12.90;82.40
67529;DHT22;54366;51.980;5.856;2022-10-26T02:41:03;12.90;82.50
67529;DHT22;54366;51.980;5.856;2022-10-26T02:43:36;12.90;82.60
67529;DHT22;54366;51.980;5.856;2022-10-26T02:46:13;12.90;82.60
67529;DHT22;54366;51.980;5.856;2022-10-26T02:48:40;12.90;82.60
67529;DHT22;54366;51.980;5.856;2022-10-26T02:51:24;12.90;82.60
67529;DHT22;54366;51.980;5.856;2022-10-26T02:54:18;12.90;83.30
67529;DHT22;54366;51.980;5.856;2022-10-26T02:56:58;12.90;82.80
67529;DHT22;54366;51.980;5.856;2022-10-26T02:59:28;12.90;82.80
67529;DHT22;54366;51.980;5.856;2022-10-26T03:01:56;12.90;83.30
67529;DHT22;54366;51.980;5.856;2022-10-26T03:04:33;12.90;82.80
67529;DHT22;54366;51.980;5.856;2022-10-26T03:07:00;12.90;82.70
67529;DHT22;54366;51.980;5.856;2022-10-26T03:09:26;12.90;82.80
67529;DHT22;54366;51.980;5.856;2022-10-26T03:11:53;12.90;82.80
67529;DHT22;54366;51.980;5.856;2022-10-26T03:14:19;13.00;82.80
67529;DHT22;54366;51.980;5.856;2022-10-26T03:16:46;13.00;82.90
67529;DHT22;54366;51.980;5.856;2022-10-26T03:19:12;12.90;82.70
67529;DHT22;54366;51.980;5.856;2022-10-26T03:21:38;13.00;82.90
67529;DHT22;54366;51.980;5.856;2022-10-26T03:24:04;13.00;82.80
67529;DHT22;54366;51.980;5.856;2022-10-26T03:26:31;13.00;82.60
67529;DHT22;54366;51.980;5.856;2022-10-26T03:28:57;13.00;82.80
67529;DHT22;54366;51.980;5.856;2022-10-26T03:31:23;13.00;82.80
67529;DHT22;54366;51.980;5.856;2022-10-26T03:33:49;13.00;82.80
67529;DHT22;54366;51.980;5.856;2022-10-26T03:36:15;13.00;82.70
67529;DHT22;54366;51.980;5.856;2022-10-26T03:38:42;13.00;82.70
67529;DHT22;54366;51.980;5.856;2022-10-26T03:41:08;13.00;82.70
67529;DHT22;54366;51.980;5.856;2022-10-26T03:43:34;13.00;82.70
67529;DHT22;54366;51.980;5.856;2022-10-26T03:46:00;13.00;82.80
67529;DHT22;54366;51.980;5.856;2022-10-26T03:48:26;13.10;82.60
67529;DHT22;54366;51.980;5.856;2022-10-26T03:50:57;13.10;82.70
67529;DHT22;54366;51.980;5.856;2022-10-26T03:53:25;13.00;82.70
67529;DHT22;54366;51.980;5.856;2022-10-26T03:55:51;13.10;82.60
67529;DHT22;54366;51.980;5.856;2022-10-26T03:58:17;13.10;82.80
67529;DHT22;54366;51.980;5.856;2022-10-26T04:00:44;13.10;82.70
67529;DHT22;54366;51.980;5.856;2022-10-26T04:03:10;13.10;82.70
67529;DHT22;54366;51.980;5.856;2022-10-26T04:05:36;13.10;82.80
67529;DHT22;54366;51.980;5.856;2022-10-26T04:08:02;13.00;82.60
67529;DHT22;54366;51.980;5.856;2022-10-26T04:10:29;13.10;82.70
67529;DHT22;54366;51.980;5.856;2022-10-26T04:12:55;13.00;82.70
67529;DHT22;54366;51.980;5.856;2022-10-26T04:15:22;13.00;82.60
67529;DHT22;54366;51.980;5.856;2022-10-26T04:17:57;13.00;82.60
67529;DHT22;54366;51.980;5.856;2022-10-26T04:20:24;13.10;82.80
67529;DHT22;54366;51.980;5.856;2022-10-26T04:23:02;13.00;82.70
67529;DHT22;54366;51.980;5.856;2022-10-26T04:25:30;13.00;82.90
67529;DHT22;54366;51.980;5.856;2022-10-26T04:27:56;13.00;82.80
67529;DHT22;54366;51.980;5.856;2022-10-26T04:30:23;13.00;82.80
67529;DHT22;54366;51.980;5.856;2022-10-26T04:32:49;13.00;82.90
67529;DHT22;54366;51.980;5.856;2022-10-26T04:35:16;13.00;83.00
67529;DHT22;54366;51.980;5.856;2022-10-26T04:37:42;13.00;83.00
67529;DHT22;54366;51.980;5.856;2022-10-26T04:40:08;13.00;83.00
67529;DHT22;54366;51.980;5.856;2022-10-26T04:42:45;13.00;82.90
67529;DHT22;54366;51.980;5.856;2022-10-26T04:45:13;13.00;82.90
67529;DHT22;54366;51.980;5.856;2022-10-26T04:47:40;12.90;82.70
67529;DHT22;54366;51.980;5.856;2022-10-26T04:50:08;13.00;82.90
67529;DHT22;54366;51.980;5.856;2022-10-26T04:52:35;13.00;82.90
67529;DHT22;54366;51.980;5.856;2022-10-26T04:55:02;13.00;82.90
67529;DHT22;54366;51.980;5.856;2022-10-26T04:57:34;13.00;82.90
67529;DHT22;54366;51.980;5.856;2022-10-26T05:00:02;13.00;83.10
67529;DHT22;54366;51.980;5.856;2022-10-26T05:02:29;13.00;83.10
67529;DHT22;54366;51.980;5.856;2022-10-26T05:04:55;13.00;83.70
67529;DHT22;54366;51.980;5.856;2022-10-26T05:07:21;13.00;83.10
67529;DHT22;54366;51.980;5.856;2022-10-26T05:09:48;13.00;83.10
67529;DHT22;54366;51.980;5.856;2022-10-26T05:12:14;13.00;83.30
67529;DHT22;54366;51.980;5.856;2022-10-26T05:14:40;13.00;83.20
67529;DHT22;54366;51.980;5.856;2022-10-26T05:17:06;13.00;83.20
67529;DHT22;54366;51.980;5.856;2022-10-26T05:19:32;13.00;83.30
67529;DHT22;54366;51.980;5.856;2022-10-26T05:21:58;13.00;83.30
67529;DHT22;54366;51.980;5.856;2022-10-26T05:24:25;13.00;83.20
67529;DHT22;54366;51.980;5.856;2022-10-26T05:26:51;13.10;83.20
67529;DHT22;54366;51.980;5.856;2022-10-26T05:29:17;13.10;83.30
67529;DHT22;54366;51.980;5.856;2022-10-26T05:31:43;13.00;83.20
67529;DHT22;54366;51.980;5.856;2022-10-26T05:34:09;13.10;83.30
67529;DHT22;54366;51.980;5.856;2022-10-26T05:36:36;13.10;83.20
67529;DHT22;54366;51.980;5.856;2022-10-26T05:39:02;13.10;83.20
67529;DHT22;54366;51.980;5.856;2022-10-26T05:41:28;13.10;83.20
67529;DHT22;54366;51.980;5.856;2022-10-26T05:43:55;13.20;83.10
67529;DHT22;54366;51.980;5.856;2022-10-26T05:46:21;13.20;83.00
67529;DHT22;54366;51.980;5.856;2022-10-26T05:48:47;13.20;83.20
67529;DHT22;54366;51.980;5.856;2022-10-26T05:51:13;13.20;83.10
67529;DHT22;54366;51.980;5.856;2022-10-26T05:53:39;13.20;83.00
67529;DHT22;54366;51.980;5.856;2022-10-26T05:56:20;13.20;83.00
67529;DHT22;54366;51.980;5.856;2022-10-26T05:58:53;13.20;83.00
67529;DHT22;54366;51.980;5.856;2022-10-26T06:06:44;13.30;83.00
67529;DHT22;54366;51.980;5.856;2022-10-26T06:09:13;13.30;82.90
67529;DHT22;54366;51.980;5.856;2022-10-26T06:11:40;13.20;83.00
67529;DHT22;54366;51.980;5.856;2022-10-26T06:14:07;13.30;83.00
67529;DHT22;54366;51.980;5.856;2022-10-26T06:16:41;13.30;83.00
67529;DHT22;54366;51.980;5.856;2022-10-26T06:22:26;13.30;83.00
67529;DHT22;54366;51.980;5.856;2022-10-26T06:30:08;13.20;83.60
67529;DHT22;54366;51.980;5.856;2022-10-26T06:32:38;13.30;83.10
67529;DHT22;54366;51.980;5.856;2022-10-26T06:35:35;13.20;83.00
67529;DHT22;54366;51.980;5.856;2022-10-26T06:38:06;13.20;83.10
67529;DHT22;54366;51.980;5.856;2022-10-26T06:40:35;13.20;83.10
67529;DHT22;54366;51.980;5.856;2022-10-26T06:43:03;13.20;83.20
67529;DHT22;54366;51.980;5.856;2022-10-26T06:45:30;13.20;83.20
67529;DHT22;54366;51.980;5.856;2022-10-26T06:48:09;13.20;83.30
67529;DHT22;54366;51.980;5.856;2022-10-26T06:50:46;13.20;83.20
67529;DHT22;54366;51.980;5.856;2022-10-26T06:55:56;13.20;83.30
67529;DHT22;54366;51.980;5.856;2022-10-26T06:58:26;13.20;83.40
67529;DHT22;54366;51.980;5.856;2022-10-26T07:00:54;13.20;83.50
67529;DHT22;54366;51.980;5.856;2022-10-26T07:03:21;13.20;83.50
67529;DHT22;54366;51.980;5.856;2022-10-26T07:05:47;13.20;83.40
67529;DHT22;54366;51.980;5.856;2022-10-26T07:08:14;13.20;83.40
67529;DHT22;54366;51.980;5.856;2022-10-26T07:10:40;13.20;83.40
67529;DHT22;54366;51.980;5.856;2022-10-26T07:13:09;13.30;83.50
67529;DHT22;54366;51.980;5.856;2022-10-26T07:15:37;13.20;83.30
67529;DHT22;54366;51.980;5.856;2022-10-26T07:18:05;13.30;83.40
67529;DHT22;54366;51.980;5.856;2022-10-26T07:20:35;13.30;83.40
67529;DHT22;54366;51.980;5.856;2022-10-26T07:23:02;13.30;83.50
67529;DHT22;54366;51.980;5.856;2022-10-26T07:25:28;13.30;83.40
67529;DHT22;54366;51.980;5.856;2022-10-26T07:27:58;13.40;83.30
67529;DHT22;54366;51.980;5.856;2022-10-26T07:30:28;13.40;83.40
67529;DHT22;54366;51.980;5.856;2022-10-26T07:33:10;13.50;83.30
67529;DHT22;54366;51.980;5.856;2022-10-26T07:35:36;13.60;83.20
67529;DHT22;54366;51.980;5.856;2022-10-26T07:38:03;13.60;83.10
67529;DHT22;54366;51.980;5.856;2022-10-26T07:40:30;13.70;83.10
67529;DHT22;54366;51.980;5.856;2022-10-26T07:42:58;13.70;83.10
67529;DHT22;54366;51.980;5.856;2022-10-26T07:45:26;13.70;83.10
67529;DHT22;54366;51.980;5.856;2022-10-26T07:47:52;13.80;83.20
67529;DHT22;54366;51.980;5.856;2022-10-26T07:50:18;13.80;83.30
67529;DHT22;54366;51.980;5.856;2022-10-26T07:52:44;13.90;83.30
67529;DHT22;54366;51.980;5.856;2022-10-26T07:55:11;13.90;83.20
67529;DHT22;54366;51.980;5.856;2022-10-26T07:57:38;14.00;83.30
67529;DHT22;54366;51.980;5.856;2022-10-26T08:00:07;14.00;83.10
67529;DHT22;54366;51.980;5.856;2022-10-26T08:02:34;14.10;83.00
67529;DHT22;54366;51.980;5.856;2022-10-26T08:05:00;14.20;83.10
67529;DHT22;54366;51.980;5.856;2022-10-26T08:07:27;14.20;83.00
67529;DHT22;54366;51.980;5.856;2022-10-26T08:09:53;14.30;83.10
67529;DHT22;54366;51.980;5.856;2022-10-26T08:12:19;14.30;83.00
67529;DHT22;54366;51.980;5.856;2022-10-26T08:14:46;14.40;82.80
67529;DHT22;54366;51.980;5.856;2022-10-26T08:17:12;14.50;82.80
67529;DHT22;54366;51.980;5.856;2022-10-26T08:19:38;14.60;82.70
67529;DHT22;54366;51.980;5.856;2022-10-26T08:22:04;14.60;82.70
67529;DHT22;54366;51.980;5.856;2022-10-26T08:24:31;14.70;82.70
67529;DHT22;54366;51.980;5.856;2022-10-26T08:26:57;14.70;82.60
67529;DHT22;54366;51.980;5.856;2022-10-26T08:29:23;14.80;82.60
67529;DHT22;54366;51.980;5.856;2022-10-26T08:31:50;14.90;82.50
67529;DHT22;54366;51.980;5.856;2022-10-26T08:34:16;15.00;82.40
67529;DHT22;54366;51.980;5.856;2022-10-26T08:36:42;15.10;82.50
67529;DHT22;54366;51.980;5.856;2022-10-26T08:39:08;15.20;82.20
67529;DHT22;54366;51.980;5.856;2022-10-26T08:47:11;15.40;81.90
67529;DHT22;54366;51.980;5.856;2022-10-26T08:50:05;15.40;81.80
67529;DHT22;54366;51.980;5.856;2022-10-26T08:52:51;15.50;81.80
67529;DHT22;54366;51.980;5.856;2022-10-26T08:55:30;15.60;81.80
67529;DHT22;54366;51.980;5.856;2022-10-26T08:58:00;15.70;81.60
67529;DHT22;54366;51.980;5.856;2022-10-26T09:00:28;15.80;81.50
67529;DHT22;54366;51.980;5.856;2022-10-26T09:02:55;15.80;81.40
67529;DHT22;54366;51.980;5.856;2022-10-26T09:05:28;16.00;81.40
67529;DHT22;54366;51.980;5.856;2022-10-26T09:13:24;16.30;80.90
67529;DHT22;54366;51.980;5.856;2022-10-26T09:19:13;16.60;80.00
67529;DHT22;54366;51.980;5.856;2022-10-26T09:21:36;16.70;79.90
67529;DHT22;54366;51.980;5.856;2022-10-26T09:24:13;16.80;79.60
67529;DHT22;54366;51.980;5.856;2022-10-26T09:26:54;16.90;79.20
67529;DHT22;54366;51.980;5.856;2022-10-26T09:29:35;16.90;79.00
67529;DHT22;54366;51.980;5.856;2022-10-26T09:32:07;17.00;77.90
67529;DHT22;54366;51.980;5.856;2022-10-26T09:34:38;17.10;79.00
67529;DHT22;54366;51.980;5.856;2022-10-26T09:37:14;17.10;77.90
67529;DHT22;54366;51.980;5.856;2022-10-26T09:42:31;17.20;78.10
67529;DHT22;54366;51.980;5.856;2022-10-26T09:45:15;17.30;78.30
67529;DHT22;54366;51.980;5.856;2022-10-26T09:47:49;17.40;78.00
67529;DHT22;54366;51.980;5.856;2022-10-26T09:50:33;17.50;78.30
67529;DHT22;54366;51.980;5.856;2022-10-26T09:53:00;17.60;77.70
67529;DHT22;54366;51.980;5.856;2022-10-26T09:55:29;17.60;77.50
67529;DHT22;54366;51.980;5.856;2022-10-26T09:57:59;17.70;77.40
67529;DHT22;54366;51.980;5.856;2022-10-26T10:00:26;17.80;77.00
67529;DHT22;54366;51.980;5.856;2022-10-26T10:02:57;17.90;76.50
67529;DHT22;54366;51.980;5.856;2022-10-26T10:05:31;18.00;76.50
67529;DHT22;54366;51.980;5.856;2022-10-26T10:08:23;18.10;76.80
67529;DHT22;54366;51.980;5.856;2022-10-26T10:10:53;18.10;76.50
67529;DHT22;54366;51.980;5.856;2022-10-26T10:13:20;18.10;76.60
67529;DHT22;54366;51.980;5.856;2022-10-26T10:16:00;18.20;76.90
67529;DHT22;54366;51.980;5.856;2022-10-26T10:18:27;18.20;77.40
67529;DHT22;54366;51.980;5.856;2022-10-26T10:20:55;18.30;76.50
67529;DHT22;54366;51.980;5.856;2022-10-26T10:26:02;18.50;76.20
67529;DHT22;54366;51.980;5.856;2022-10-26T10:28:29;18.50;76.00
67529;DHT22;54366;51.980;5.856;2022-10-26T10:30:57;18.60;76.10
67529;DHT22;54366;51.980;5.856;2022-10-26T10:33:36;18.60;75.40
67529;DHT22;54366;51.980;5.856;2022-10-26T10:36:06;18.70;75.80
67529;DHT22;54366;51.980;5.856;2022-10-26T10:38:39;18.80;75.50
67529;DHT22;54366;51.980;5.856;2022-10-26T10:44:00;19.00;75.00
67529;DHT22;54366;51.980;5.856;2022-10-26T10:46:27;19.10;74.90
67529;DHT22;54366;51.980;5.856;2022-10-26T10:49:02;19.20;74.30
67529;DHT22;54366;51.980;5.856;2022-10-26T10:51:34;19.30;74.50
67529;DHT22;54366;51.980;5.856;2022-10-26T10:54:02;19.30;74.10
67529;DHT22;54366;51.980;5.856;2022-10-26T10:56:50;19.40;74.20
67529;DHT22;54366;51.980;5.856;2022-10-26T11:02:31;19.60;74.20
67529;DHT22;54366;51.980;5.856;2022-10-26T11:05:18;19.70;73.60
67529;DHT22;54366;51.980;5.856;2022-10-26T11:10:38;19.80;73.10
67529;DHT22;54366;51.980;5.856;2022-10-26T11:13:30;19.90;73.10
67529;DHT22;54366;51.980;5.856;2022-10-26T11:16:04;20.00;73.60
67529;DHT22;54366;51.980;5.856;2022-10-26T11:18:36;20.10;72.90
67529;DHT22;54366;51.980;5.856;2022-10-26T11:21:26;20.20;72.30
67529;DHT22;54366;51.980;5.856;2022-10-26T11:24:14;20.20;72.00
67529;DHT22;54366;51.980;5.856;2022-10-26T11:29:32;20.40;72.40
67529;DHT22;54366;51.980;5.856;2022-10-26T11:35:09;20.60;71.00
67529;DHT22;54366;51.980;5.856;2022-10-26T11:48:39;20.70;69.90
67529;DHT22;54366;51.980;5.856;2022-10-26T11:51:18;20.70;69.50
67529;DHT22;54366;51.980;5.856;2022-10-26T11:53:46;20.60;70.60
67529;DHT22;54366;51.980;5.856;2022-10-26T11:56:27;20.50;70.90
67529;DHT22;54366;51.980;5.856;2022-10-26T11:58:56;20.50;71.30
67529;DHT22;54366;51.980;5.856;2022-10-26T12:01:24;20.40;71.60
67529;DHT22;54366;51.980;5.856;2022-10-26T12:03:53;20.30;72.20
67529;DHT22;54366;51.980;5.856;2022-10-26T12:06:24;20.30;72.30
67529;DHT22;54366;51.980;5.856;2022-10-26T12:09:15;20.20;72.30
67529;DHT22;54366;51.980;5.856;2022-10-26T12:14:39;20.30;72.70
67529;DHT22;54366;51.980;5.856;2022-10-26T12:22:32;20.50;72.50
67529;DHT22;54366;51.980;5.856;2022-10-26T12:27:55;20.60;71.90
67529;DHT22;54366;51.980;5.856;2022-10-26T12:30:22;20.80;71.70
67529;DHT22;54366;51.980;5.856;2022-10-26T12:35:42;20.90;71.30
67529;DHT22;54366;51.980;5.856;2022-10-26T12:40:48;21.10;71.10
67529;DHT22;54366;51.980;5.856;2022-10-26T12:45:42;21.20;71.00
67529;DHT22;54366;51.980;5.856;2022-10-26T12:48:52;21.20;71.20
67529;DHT22;54366;51.980;5.856;2022-10-26T12:54:22;21.20;69.30
67529;DHT22;54366;51.980;5.856;2022-10-26T12:56:56;21.20;69.70
67529;DHT22;54366;51.980;5.856;2022-10-26T13:07:49;21.00;69.70
67529;DHT22;54366;51.980;5.856;2022-10-26T13:10:20;20.90;69.90
67529;DHT22;54366;51.980;5.856;2022-10-26T13:12:51;20.90;70.20
67529;DHT22;54366;51.980;5.856;2022-10-26T13:15:27;20.90;70.70
67529;DHT22;54366;51.980;5.856;2022-10-26T13:20:26;20.80;70.20
67529;DHT22;54366;51.980;5.856;2022-10-26T13:22:53;20.80;70.70
67529;DHT22;54366;51.980;5.856;2022-10-26T13:25:29;20.80;69.70
67529;DHT22;54366;51.980;5.856;2022-10-26T13:30:46;20.70;70.10
67529;DHT22;54366;51.980;5.856;2022-10-26T13:33:20;20.70;69.80
67529;DHT22;54366;51.980;5.856;2022-10-26T13:35:49;20.70;70.10
67529;DHT22;54366;51.980;5.856;2022-10-26T13:38:19;20.60;70.60
67529;DHT22;54366;51.980;5.856;2022-10-26T13:40:48;20.60;70.80
67529;DHT22;54366;51.980;5.856;2022-10-26T13:43:20;20.60;70.90
67529;DHT22;54366;51.980;5.856;2022-10-26T13:45:58;20.60;71.20
67529;DHT22;54366;51.980;5.856;2022-10-26T13:48:39;20.60;70.70
67529;DHT22;54366;51.980;5.856;2022-10-26T13:51:15;20.60;71.00
67529;DHT22;54366;51.980;5.856;2022-10-26T13:54:02;20.60;71.30
67529;DHT22;54366;51.980;5.856;2022-10-26T13:59:17;20.60;71.40
67529;DHT22;54366;51.980;5.856;2022-10-26T14:01:43;20.60;71.60
67529;DHT22;54366;51.980;5.856;2022-10-26T14:04:16;20.60;71.50
67529;DHT22;54366;51.980;5.856;2022-10-26T14:06:48;20.50;71.60
67529;DHT22;54366;51.980;5.856;2022-10-26T14:09:16;20.50;71.80
67529;DHT22;54366;51.980;5.856;2022-10-26T14:11:54;20.50;71.20
67529;DHT22;54366;51.980;5.856;2022-10-26T14:14:24;20.50;71.40
67529;DHT22;54366;51.980;5.856;2022-10-26T14:16:52;20.50;71.30
67529;DHT22;54366;51.980;5.856;2022-10-26T14:21:47;20.40;71.30
67529;DHT22;54366;51.980;5.856;2022-10-26T14:26:55;20.40;71.50
67529;DHT22;54366;51.980;5.856;2022-10-26T14:29:23;20.40;71.70
67529;DHT22;54366;51.980;5.856;2022-10-26T14:31:50;20.40;71.90
67529;DHT22;54366;51.980;5.856;2022-10-26T14:34:18;20.30;71.70
67529;DHT22;54366;51.980;5.856;2022-10-26T14:37:01;20.30;72.00
67529;DHT22;54366;51.980;5.856;2022-10-26T14:39:33;20.30;72.20
67529;DHT22;54366;51.980;5.856;2022-10-26T14:42:16;20.30;72.30
67529;DHT22;54366;51.980;5.856;2022-10-26T14:44:48;20.30;72.30
67529;DHT22;54366;51.980;5.856;2022-10-26T14:47:23;20.30;72.40
67529;DHT22;54366;51.980;5.856;2022-10-26T14:49:50;20.30;72.50
67529;DHT22;54366;51.980;5.856;2022-10-26T14:52:29;20.20;72.50
67529;DHT22;54366;51.980;5.856;2022-10-26T14:55:18;20.20;72.50
67529;DHT22;54366;51.980;5.856;2022-10-26T14:57:46;20.20;72.70
67529;DHT22;54366;51.980;5.856;2022-10-26T15:00:15;20.20;72.70
67529;DHT22;54366;51.980;5.856;2022-10-26T15:02:52;20.20;72.70
67529;DHT22;54366;51.980;5.856;2022-10-26T15:07:50;20.20;72.90
67529;DHT22;54366;51.980;5.856;2022-10-26T15:13:24;20.20;73.00
67529;DHT22;54366;51.980;5.856;2022-10-26T15:15:53;20.20;73.00
67529;DHT22;54366;51.980;5.856;2022-10-26T15:18:24;20.20;73.00
67529;DHT22;54366;51.980;5.856;2022-10-26T15:20:52;20.20;73.10
67529;DHT22;54366;51.980;5.856;2022-10-26T15:23:20;20.10;73.10
67529;DHT22;54366;51.980;5.856;2022-10-26T15:25:56;20.10;72.90
67529;DHT22;54366;51.980;5.856;2022-10-26T15:31:06;20.10;73.50
67529;DHT22;54366;51.980;5.856;2022-10-26T15:33:33;20.10;73.00
67529;DHT22;54366;51.980;5.856;2022-10-26T15:36:19;20.00;72.80
67529;DHT22;54366;51.980;5.856;2022-10-26T15:38:47;20.00;72.70
67529;DHT22;54366;51.980;5.856;2022-10-26T15:41:23;19.90;72.70
67529;DHT22;54366;51.980;5.856;2022-10-26T15:43:52;19.90;72.70
67529;DHT22;54366;51.980;5.856;2022-10-26T15:46:22;19.80;72.80
67529;DHT22;54366;51.980;5.856;2022-10-26T15:48:54;19.90;73.00
67529;DHT22;54366;51.980;5.856;2022-10-26T15:51:20;19.80;73.10
67529;DHT22;54366;51.980;5.856;2022-10-26T15:53:47;19.80;73.30
67529;DHT22;54366;51.980;5.856;2022-10-26T15:56:24;19.80;73.40
67529;DHT22;54366;51.980;5.856;2022-10-26T15:58:51;19.70;73.50
67529;DHT22;54366;51.980;5.856;2022-10-26T16:01:24;19.70;73.60
67529;DHT22;54366;51.980;5.856;2022-10-26T16:03:51;19.70;73.60
67529;DHT22;54366;51.980;5.856;2022-10-26T16:06:28;19.60;73.50
67529;DHT22;54366;51.980;5.856;2022-10-26T16:08:57;19.60;73.50
67529;DHT22;54366;51.980;5.856;2022-10-26T16:11:23;19.60;73.60
67529;DHT22;54366;51.980;5.856;2022-10-26T16:13:49;19.50;73.70
67529;DHT22;54366;51.980;5.856;2022-10-26T16:16:17;19.50;73.90
67529;DHT22;54366;51.980;5.856;2022-10-26T16:18:44;19.50;74.00
67529;DHT22;54366;51.980;5.856;2022-10-26T16:21:15;19.40;74.10
67529;DHT22;54366;51.980;5.856;2022-10-26T16:23:44;19.40;74.10
67529;DHT22;54366;51.980;5.856;2022-10-26T16:26:11;19.30;74.10
67529;DHT22;54366;51.980;5.856;2022-10-26T16:28:37;19.30;74.20
67529;DHT22;54366;51.980;5.856;2022-10-26T16:31:13;19.20;74.30
67529;DHT22;54366;51.980;5.856;2022-10-26T16:33:40;19.20;74.40
67529;DHT22;54366;51.980;5.856;2022-10-26T16:36:06;19.10;74.20
67529;DHT22;54366;51.980;5.856;2022-10-26T16:38:33;19.10;74.20
67529;DHT22;54366;51.980;5.856;2022-10-26T16:41:09;19.00;74.10
67529;DHT22;54366;51.980;5.856;2022-10-26T16:43:41;19.00;74.10
67529;DHT22;54366;51.980;5.856;2022-10-26T16:46:15;18.90;74.20
67529;DHT22;54366;51.980;5.856;2022-10-26T16:48:42;18.90;74.40
67529;DHT22;54366;51.980;5.856;2022-10-26T16:51:14;18.80;74.40
67529;DHT22;54366;51.980;5.856;2022-10-26T16:53:40;18.80;74.60
67529;DHT22;54366;51.980;5.856;2022-10-26T16:56:12;18.80;74.70
67529;DHT22;54366;51.980;5.856;2022-10-26T16:58:39;18.80;75.50
67529;DHT22;54366;51.980;5.856;2022-10-26T17:01:07;18.70;74.90
67529;DHT22;54366;51.980;5.856;2022-10-26T17:03:34;18.70;75.10
67529;DHT22;54366;51.980;5.856;2022-10-26T17:06:02;18.70;75.00
67529;DHT22;54366;51.980;5.856;2022-10-26T17:08:30;18.60;74.90
67529;DHT22;54366;51.980;5.856;2022-10-26T17:11:05;18.60;75.00
67529;DHT22;54366;51.980;5.856;2022-10-26T17:13:34;18.50;75.50
67529;DHT22;54366;51.980;5.856;2022-10-26T17:16:15;18.40;75.20
67529;DHT22;54366;51.980;5.856;2022-10-26T17:18:42;18.30;75.40
67529;DHT22;54366;51.980;5.856;2022-10-26T17:21:10;18.30;75.50
67529;DHT22;54366;51.980;5.856;2022-10-26T17:23:37;18.20;75.60
67529;DHT22;54366;51.980;5.856;2022-10-26T17:26:05;18.20;75.60
67529;DHT22;54366;51.980;5.856;2022-10-26T17:28:33;18.10;75.70
67529;DHT22;54366;51.980;5.856;2022-10-26T17:31:12;18.10;75.70
67529;DHT22;54366;51.980;5.856;2022-10-26T17:33:41;18.10;75.70
67529;DHT22;54366;51.980;5.856;2022-10-26T17:36:08;18.00;76.10
67529;DHT22;54366;51.980;5.856;2022-10-26T17:38:37;17.90;75.70
67529;DHT22;54366;51.980;5.856;2022-10-26T17:41:05;17.90;75.90
67529;DHT22;54366;51.980;5.856;2022-10-26T17:43:33;17.80;76.10
67529;DHT22;54366;51.980;5.856;2022-10-26T17:46:04;17.70;76.10
67529;DHT22;54366;51.980;5.856;2022-10-26T17:48:31;17.70;76.40
67529;DHT22;54366;51.980;5.856;2022-10-26T17:51:03;17.60;76.50
67529;DHT22;54366;51.980;5.856;2022-10-26T17:53:30;17.60;76.60
67529;DHT22;54366;51.980;5.856;2022-10-26T17:56:29;17.50;76.70
67529;DHT22;54366;51.980;5.856;2022-10-26T17:58:59;17.50;77.40
67529;DHT22;54366;51.980;5.856;2022-10-26T18:01:26;17.40;76.80
67529;DHT22;54366;51.980;5.856;2022-10-26T18:03:53;17.40;76.90
67529;DHT22;54366;51.980;5.856;2022-10-26T18:06:20;17.40;77.00
67529;DHT22;54366;51.980;5.856;2022-10-26T18:08:47;17.30;77.00
67529;DHT22;54366;51.980;5.856;2022-10-26T18:11:15;17.20;77.10
67529;DHT22;54366;51.980;5.856;2022-10-26T18:13:44;17.20;77.20
67529;DHT22;54366;51.980;5.856;2022-10-26T18:16:13;17.10;77.30
67529;DHT22;54366;51.980;5.856;2022-10-26T18:18:40;17.00;77.30